Accueil
METAR-TAF:

METAR-TAF

Aéroports :

Nouakchott, Mauritanie

Aéroport international de Nouakchott-Oumtounsy

latitude: 18-18-36N, longitude: 015-58-11W, altitude: 3 m

Observation

Le bulletin a été fait il y a 39 minutes, à 23:30 UTC
Vent 9 kt de nord
Température 20°C
Humidité 94%
Pression 1013 hPa
Visibilité 10 km ou plus
pas de nuages en-dessous de 1500 mètres et pas de cumulonimbus.

METAR: GQNO 222330Z 35009KT CAVOK 20/19 Q1013 NOSIG

Heure: 00:09 (00:09 UTC)

Prévision

Le bulletin a été fait il y a 7 heures et 9 minutes, à 17:00 UTC
Prévision valable du 22 à 18 UTC au 23 à 24 UTC
Vent 10 kt de nord/nord-ouest
Visibilité: 8000 m
Probabilité 30% :
Temporairement
du 23 à 04 UTC au 23 à 08 UTC
Nuages fragmentés à une hauteur de 800 ft

TAF: GQNO 221700Z 2218/2324 34010KT 8000 NSC PROB30 TEMPO 2304/2308 BKN008

Observations et prévisions météorologiques de plus de 4000 aéroports (messages METAR et TAF).

Les stations disponibles sont représentées par des disques jaunes et rouges sur la carte.

Passer la souris dessus pour voir le nom de la station.

Cliquer dessus pour voir les observations et prévisions météorologiques.

Pour changer de carte: cliquez sur les boutons verts avec une croix noire pour zoomer, sur le bouton vert avec un tiret pour effectuer un zoom arrière, ou sur les flèches vertes pour les cartes adjacentes.


METAR-TAF: